createdAt,value
2017-01-25T00:00:23.007Z,0
2017-01-25T00:02:30.335Z,0
2017-01-25T00:04:42.692Z,0
2017-01-25T00:06:54.958Z,0
2017-01-25T00:09:07.192Z,0
2017-01-25T00:11:20.329Z,0
2017-01-25T00:13:32.983Z,0
2017-01-25T00:15:40.370Z,0
2017-01-25T00:17:52.666Z,0
2017-01-25T00:20:04.867Z,0
2017-01-25T00:22:17.185Z,0
2017-01-25T00:24:29.344Z,0
2017-01-25T00:26:41.523Z,0
2017-01-25T00:28:53.755Z,0
2017-01-25T00:31:05.942Z,0
2017-01-25T00:33:18.431Z,0
2017-01-25T00:35:30.867Z,0
2017-01-25T00:37:43.146Z,0
2017-01-25T00:39:55.380Z,0
2017-01-25T00:42:07.579Z,0
2017-01-25T00:44:19.859Z,0
2017-01-25T00:46:32.475Z,0
2017-01-25T00:48:45.047Z,0
2017-01-25T00:50:57.459Z,0
2017-01-25T00:53:09.672Z,0
2017-01-25T00:55:21.938Z,0
2017-01-25T00:57:34.190Z,0
2017-01-25T00:59:46.456Z,0
2017-01-25T01:01:58.690Z,0
2017-01-25T01:04:10.948Z,0
2017-01-25T01:06:23.377Z,0
2017-01-25T01:08:35.756Z,0
2017-01-25T01:10:43.094Z,0
2017-01-25T01:12:50.395Z,0
2017-01-25T01:15:02.605Z,0
2017-01-25T01:17:14.780Z,0
2017-01-25T01:19:27.059Z,0
2017-01-25T01:21:39.618Z,0
2017-01-25T01:23:47.113Z,0
2017-01-25T01:25:59.516Z,0
2017-01-25T01:28:11.887Z,0
2017-01-25T01:30:24.207Z,0
2017-01-25T01:32:36.386Z,0
2017-01-25T01:34:43.912Z,0
2017-01-25T01:36:56.403Z,0
2017-01-25T01:39:08.709Z,0
2017-01-25T01:41:15.893Z,0
2017-01-25T01:43:28.157Z,0
2017-01-25T01:45:40.473Z,0
2017-01-25T01:47:52.772Z,0
2017-01-25T01:50:05.178Z,0
2017-01-25T01:52:17.438Z,0
2017-01-25T01:54:29.925Z,0
2017-01-25T01:56:42.902Z,0
2017-01-25T01:58:55.187Z,0
2017-01-25T02:01:07.442Z,0
2017-01-25T02:03:14.821Z,0
2017-01-25T02:05:27.133Z,0
2017-01-25T02:07:39.447Z,0
2017-01-25T02:09:41.799Z,0
2017-01-25T02:11:54.250Z,0
2017-01-25T02:14:01.467Z,0
2017-01-25T02:16:13.616Z,0
2017-01-25T02:18:25.890Z,0
2017-01-25T02:20:33.304Z,0
2017-01-25T02:22:45.720Z,0
2017-01-25T02:24:57.915Z,0
2017-01-25T02:27:10.311Z,0
2017-01-25T02:29:23.186Z,0
2017-01-25T02:31:36.126Z,0
2017-01-25T02:33:43.480Z,0
2017-01-25T02:35:50.661Z,0
2017-01-25T02:38:02.952Z,0
2017-01-25T02:40:10.339Z,0
2017-01-25T02:42:22.531Z,0
2017-01-25T02:44:34.741Z,0
2017-01-25T02:46:46.910Z,0
2017-01-25T02:48:54.138Z,0
2017-01-25T02:51:06.422Z,0
2017-01-25T02:53:13.812Z,0
2017-01-25T02:55:26.071Z,0
2017-01-25T02:57:38.329Z,0
2017-01-25T02:59:50.720Z,0
2017-01-25T03:01:53.190Z,0
2017-01-25T03:04:06.412Z,0
2017-01-25T03:06:18.985Z,0
2017-01-25T03:08:31.290Z,0
2017-01-25T03:10:38.598Z,0
2017-01-25T03:12:50.861Z,0
2017-01-25T03:15:03.073Z,0
2017-01-25T03:17:15.527Z,0
2017-01-25T03:19:27.729Z,0
2017-01-25T03:21:39.882Z,0
2017-01-25T03:23:52.219Z,0
2017-01-25T03:26:04.368Z,0
2017-01-25T03:28:16.608Z,0
2017-01-25T03:30:28.920Z,0
2017-01-25T03:32:41.086Z,0
2017-01-25T03:34:53.293Z,0
2017-01-25T03:37:05.429Z,0
2017-01-25T03:39:18.341Z,0
2017-01-25T03:41:30.639Z,0
2017-01-25T03:43:42.950Z,0
2017-01-25T03:45:55.588Z,0
2017-01-25T03:48:07.926Z,0
2017-01-25T03:50:20.121Z,0
2017-01-25T03:52:32.449Z,0
2017-01-25T03:54:44.914Z,0
2017-01-25T03:56:57.607Z,0
2017-01-25T03:59:09.945Z,0
2017-01-25T04:01:22.185Z,0
2017-01-25T04:03:34.380Z,0
2017-01-25T04:05:46.699Z,0
2017-01-25T04:07:59.139Z,0
2017-01-25T04:10:11.309Z,0
2017-01-25T04:12:24.083Z,0
2017-01-25T04:14:36.693Z,0
2017-01-25T04:16:49.116Z,0
2017-01-25T04:19:01.440Z,0
2017-01-25T04:21:13.803Z,0
2017-01-25T04:23:28.104Z,0
2017-01-25T04:25:40.466Z,0
2017-01-25T04:27:52.821Z,0
2017-01-25T04:30:05.125Z,0
2017-01-25T04:32:17.475Z,0
2017-01-25T04:34:29.657Z,0
2017-01-25T04:36:42.097Z,0
2017-01-25T04:38:54.241Z,0
2017-01-25T04:41:06.462Z,0
2017-01-25T04:43:18.586Z,0
2017-01-25T04:45:30.850Z,0
2017-01-25T04:47:43.928Z,0
2017-01-25T04:49:56.204Z,0
2017-01-25T04:52:09.216Z,0
2017-01-25T04:54:21.348Z,0
2017-01-25T04:56:33.642Z,0
2017-01-25T04:58:45.940Z,0
2017-01-25T05:00:58.235Z,0
2017-01-25T05:03:10.511Z,0
2017-01-25T05:05:17.741Z,0
2017-01-25T05:07:28.384Z,0
2017-01-25T05:09:40.618Z,0
2017-01-25T05:11:52.904Z,0
2017-01-25T05:14:05.269Z,0
2017-01-25T05:16:17.594Z,0
2017-01-25T05:18:30.720Z,0
2017-01-25T05:20:43.275Z,0
2017-01-25T05:22:56.061Z,0
2017-01-25T05:25:03.468Z,0
2017-01-25T05:27:10.761Z,0
2017-01-25T05:29:22.978Z,0
2017-01-25T05:31:35.133Z,0
2017-01-25T05:33:47.290Z,0
2017-01-25T05:35:59.630Z,0
2017-01-25T05:38:11.908Z,0
2017-01-25T05:40:24.263Z,0
2017-01-25T05:42:36.498Z,0
2017-01-25T05:44:48.613Z,0
2017-01-25T05:47:01.104Z,0
2017-01-25T05:49:13.323Z,0
2017-01-25T05:51:25.651Z,0
2017-01-25T05:53:37.806Z,0
2017-01-25T05:55:50.412Z,0
2017-01-25T05:58:03.139Z,0
2017-01-25T06:00:15.508Z,0
2017-01-25T06:02:28.029Z,0
2017-01-25T06:04:40.394Z,0
2017-01-25T06:06:52.791Z,0
2017-01-25T06:09:05.189Z,0
2017-01-25T06:11:17.333Z,0
2017-01-25T06:13:29.599Z,0
2017-01-25T06:15:41.994Z,0
2017-01-25T06:17:54.198Z,0
2017-01-25T06:20:06.387Z,0
2017-01-25T06:22:18.578Z,0
2017-01-25T06:24:31.055Z,0
2017-01-25T06:26:43.209Z,0
2017-01-25T06:28:57.105Z,0
2017-01-25T06:31:10.074Z,0
2017-01-25T06:33:22.345Z,0
2017-01-25T06:35:34.684Z,0
2017-01-25T06:37:47.073Z,0
2017-01-25T06:39:59.511Z,0
2017-01-25T06:42:06.775Z,0
2017-01-25T06:44:18.985Z,0
2017-01-25T06:46:31.291Z,0
2017-01-25T06:48:43.498Z,0
2017-01-25T06:50:50.699Z,5
2017-01-25T06:53:03.198Z,5
2017-01-25T06:55:15.489Z,5
2017-01-25T06:57:27.734Z,10
2017-01-25T06:59:40.112Z,10
2017-01-25T07:01:52.494Z,10
2017-01-25T07:04:05.049Z,15
2017-01-25T07:06:17.956Z,15
2017-01-25T07:08:20.417Z,15
2017-01-25T07:10:32.769Z,20
2017-01-25T07:12:40.070Z,20
2017-01-25T07:14:47.526Z,20
2017-01-25T07:16:54.925Z,25
2017-01-25T07:19:07.538Z,30
2017-01-25T07:21:14.920Z,35
2017-01-25T07:23:27.288Z,40
2017-01-25T07:25:39.589Z,40
2017-01-25T07:27:51.756Z,45
2017-01-25T07:29:59.412Z,45
2017-01-25T07:32:11.810Z,50
2017-01-25T07:34:24.599Z,50
2017-01-25T07:36:58.855Z,55
2017-01-25T07:39:07.200Z,60
2017-01-25T07:41:19.957Z,60
2017-01-25T07:43:32.465Z,70
2017-01-25T07:45:39.806Z,70
2017-01-25T07:47:52.049Z,75
2017-01-25T07:50:05.753Z,80
2017-01-25T07:52:18.145Z,80
2017-01-25T07:54:30.480Z,85
2017-01-25T07:56:43.218Z,90
2017-01-25T07:58:55.605Z,95
2017-01-25T08:01:08.114Z,100
2017-01-25T08:03:20.572Z,100
2017-01-25T08:05:34.718Z,105
2017-01-25T08:07:47.458Z,100
2017-01-25T08:10:00.484Z,105
2017-01-25T08:12:12.752Z,110
2017-01-25T08:14:25.025Z,115
2017-01-25T08:16:37.435Z,120
2017-01-25T08:18:49.806Z,130
2017-01-25T08:21:02.770Z,135
2017-01-25T08:23:15.344Z,135
2017-01-25T08:25:27.925Z,145
2017-01-25T08:27:40.111Z,140
2017-01-25T08:29:47.716Z,150
2017-01-25T08:32:00.001Z,150
2017-01-25T08:34:12.271Z,150
2017-01-25T08:36:24.625Z,155
2017-01-25T08:38:37.158Z,160
2017-01-25T08:40:49.535Z,170
2017-01-25T08:43:01.995Z,180
2017-01-25T08:45:14.379Z,185
2017-01-25T08:47:26.728Z,185
2017-01-25T08:49:39.049Z,195
2017-01-25T08:51:46.645Z,195
2017-01-25T08:53:59.165Z,200
2017-01-25T08:56:11.797Z,205
2017-01-25T08:58:24.178Z,210
2017-01-25T09:00:36.428Z,215
2017-01-25T09:02:43.950Z,220
2017-01-25T09:04:56.182Z,230
2017-01-25T09:07:08.422Z,245
2017-01-25T09:09:15.945Z,250
2017-01-25T09:11:23.191Z,260
2017-01-25T09:13:35.538Z,265
2017-01-25T09:15:47.782Z,270
2017-01-25T09:18:00.002Z,275
2017-01-25T09:20:12.529Z,295
2017-01-25T09:22:24.982Z,300
2017-01-25T09:24:37.252Z,290
2017-01-25T09:26:49.411Z,290
2017-01-25T09:29:02.409Z,300
2017-01-25T09:31:15.204Z,300
2017-01-25T09:33:27.587Z,305
2017-01-25T09:35:39.875Z,325
2017-01-25T09:37:52.367Z,355
2017-01-25T09:40:04.854Z,370
2017-01-25T09:42:17.618Z,360
2017-01-25T09:44:30.046Z,350
2017-01-25T09:46:42.618Z,345
2017-01-25T09:48:59.802Z,360
2017-01-25T09:51:12.118Z,345
2017-01-25T09:53:24.487Z,350
2017-01-25T09:55:36.688Z,355
2017-01-25T09:59:59.677Z,355
2017-01-25T10:02:12.110Z,360
2017-01-25T10:04:24.802Z,360
2017-01-25T10:06:32.424Z,365
2017-01-25T10:08:45.093Z,375
2017-01-25T10:10:57.306Z,360
2017-01-25T10:13:04.781Z,355
2017-01-25T10:15:12.144Z,350
2017-01-25T10:17:19.587Z,345
2017-01-25T10:19:32.342Z,355
2017-01-25T10:21:44.731Z,375
2017-01-25T10:23:57.122Z,390
2017-01-25T10:26:09.380Z,395
2017-01-25T10:28:16.633Z,430
2017-01-25T10:30:28.858Z,410
2017-01-25T10:32:41.178Z,395
2017-01-25T10:34:53.501Z,400
2017-01-25T10:37:05.869Z,425
2017-01-25T10:39:18.403Z,395
2017-01-25T10:41:26.237Z,390
2017-01-25T10:43:39.300Z,390
2017-01-25T10:45:51.518Z,370
2017-01-25T10:48:03.949Z,395
2017-01-25T10:50:16.220Z,375
2017-01-25T10:52:28.523Z,400
2017-01-25T10:54:40.710Z,405
2017-01-25T10:56:53.023Z,425
2017-01-25T10:59:05.690Z,405
2017-01-25T11:01:11.187Z,415
2017-01-25T11:03:23.435Z,400
2017-01-25T11:05:35.729Z,415
2017-01-25T11:07:42.940Z,415
2017-01-25T11:09:55.211Z,410
2017-01-25T11:12:07.629Z,410
2017-01-25T11:14:20.112Z,425
2017-01-25T11:16:32.526Z,425
2017-01-25T11:18:45.056Z,410
2017-01-25T11:20:57.460Z,415
2017-01-25T11:23:04.714Z,410
2017-01-25T11:25:17.350Z,430
2017-01-25T11:27:29.735Z,435
2017-01-25T11:29:42.039Z,435
2017-01-25T11:31:54.480Z,435
2017-01-25T11:34:06.915Z,445
2017-01-25T11:36:19.408Z,460
2017-01-25T11:38:31.724Z,480
2017-01-25T11:40:38.929Z,465
2017-01-25T11:42:51.196Z,490
2017-01-25T11:45:03.425Z,445
2017-01-25T11:47:15.902Z,440
2017-01-25T11:49:28.293Z,430
2017-01-25T11:51:35.904Z,440
2017-01-25T11:53:48.451Z,420
2017-01-25T11:56:00.731Z,415
2017-01-25T11:58:08.172Z,435
2017-01-25T12:00:20.374Z,425
2017-01-25T12:02:33.890Z,425
2017-01-25T12:04:50.661Z,425
2017-01-25T12:07:02.957Z,435
2017-01-25T12:09:10.328Z,430
2017-01-25T12:11:24.366Z,430
2017-01-25T12:13:36.556Z,440
2017-01-25T12:15:49.041Z,440
2017-01-25T12:18:01.395Z,430
2017-01-25T12:20:08.780Z,430
2017-01-25T12:22:21.097Z,430
2017-01-25T12:24:33.334Z,445
2017-01-25T12:26:40.644Z,455
2017-01-25T12:28:53.265Z,455
2017-01-25T12:31:00.741Z,430
2017-01-25T12:33:13.255Z,430
2017-01-25T12:35:25.535Z,420
2017-01-25T12:37:37.811Z,415
2017-01-25T12:39:49.995Z,430
2017-01-25T12:41:52.422Z,420
2017-01-25T12:43:59.663Z,400
2017-01-25T12:46:12.049Z,380
2017-01-25T12:48:24.352Z,380
2017-01-25T12:50:38.308Z,370
2017-01-25T12:52:50.725Z,350
2017-01-25T12:55:02.995Z,350
2017-01-25T12:57:15.252Z,355
2017-01-25T12:59:17.779Z,340
2017-01-25T13:01:30.157Z,330
2017-01-25T13:03:42.575Z,330
2017-01-25T13:05:55.123Z,330
2017-01-25T13:08:07.585Z,320
2017-01-25T13:10:20.025Z,310
2017-01-25T13:12:27.302Z,300
2017-01-25T13:14:40.632Z,305
2017-01-25T13:16:52.849Z,310
2017-01-25T13:19:05.234Z,305
2017-01-25T13:21:17.973Z,310
2017-01-25T13:23:25.447Z,300
2017-01-25T13:25:38.974Z,280
2017-01-25T13:27:51.280Z,275
2017-01-25T13:30:03.485Z,270
2017-01-25T13:32:15.981Z,265
2017-01-25T13:34:28.520Z,280
2017-01-25T13:36:40.957Z,250
2017-01-25T13:38:53.394Z,230
2017-01-25T13:41:05.952Z,225
2017-01-25T13:43:13.345Z,230
2017-01-25T13:45:25.524Z,225
2017-01-25T13:47:32.807Z,215
2017-01-25T13:49:45.211Z,195
2017-01-25T13:51:58.220Z,215
2017-01-25T13:54:05.590Z,210
2017-01-25T13:56:19.128Z,215
2017-01-25T13:58:27.662Z,210
2017-01-25T14:00:40.443Z,200
2017-01-25T14:02:52.685Z,195
2017-01-25T14:05:05.002Z,190
2017-01-25T14:07:17.206Z,190
2017-01-25T14:09:29.754Z,185
2017-01-25T14:11:42.098Z,185
2017-01-25T14:13:55.284Z,185
2017-01-25T14:16:03.684Z,180
2017-01-25T14:18:12.324Z,170
2017-01-25T14:20:24.671Z,165
2017-01-25T14:22:37.019Z,145
2017-01-25T14:24:49.369Z,145
2017-01-25T14:27:02.881Z,135
2017-01-25T14:29:15.265Z,125
2017-01-25T14:31:27.588Z,130
2017-01-25T14:33:40.358Z,120
2017-01-25T14:35:52.974Z,120
2017-01-25T14:38:06.487Z,115
2017-01-25T14:40:18.832Z,110
2017-01-25T14:42:31.224Z,110
2017-01-25T14:44:43.518Z,105
2017-01-25T14:46:56.047Z,95
2017-01-25T14:49:08.494Z,90
2017-01-25T14:51:20.796Z,90
2017-01-25T14:53:34.605Z,85
2017-01-25T14:55:48.320Z,85
2017-01-25T14:58:01.634Z,80
2017-01-25T15:00:13.885Z,80
2017-01-25T15:02:26.192Z,75
2017-01-25T15:04:39.668Z,70
2017-01-25T15:06:52.097Z,65
2017-01-25T15:09:04.560Z,65
2017-01-25T15:11:12.089Z,60
2017-01-25T15:13:25.751Z,65
2017-01-25T15:15:39.375Z,55
2017-01-25T15:17:52.567Z,50
2017-01-25T15:20:05.311Z,50
2017-01-25T15:22:15.067Z,50
2017-01-25T15:24:22.664Z,50
2017-01-25T15:26:35.402Z,45
2017-01-25T15:28:47.842Z,40
2017-01-25T15:31:02.592Z,40
2017-01-25T15:33:18.601Z,30
2017-01-25T15:35:31.068Z,30
2017-01-25T15:37:43.942Z,30
2017-01-25T15:39:56.284Z,30
2017-01-25T15:42:08.638Z,25
2017-01-25T15:44:23.726Z,20
2017-01-25T15:49:45.271Z,15
2017-01-25T15:51:59.447Z,10
2017-01-25T15:54:12.918Z,10
2017-01-25T15:56:25.296Z,10
2017-01-25T15:58:37.653Z,10
2017-01-25T16:00:51.041Z,5
2017-01-25T16:03:03.426Z,5
2017-01-25T16:05:17.603Z,5
2017-01-25T16:07:30.052Z,0
2017-01-25T16:09:42.467Z,0
2017-01-25T16:11:50.064Z,0
2017-01-25T16:14:02.379Z,0
2017-01-25T16:16:14.824Z,0
2017-01-25T16:18:28.179Z,0
2017-01-25T16:20:40.376Z,0
2017-01-25T16:22:52.814Z,0
2017-01-25T16:25:05.422Z,0
2017-01-25T16:27:17.796Z,0
2017-01-25T16:29:30.088Z,0
2017-01-25T16:31:42.587Z,0
2017-01-25T16:33:54.818Z,0
2017-01-25T16:36:07.174Z,0
2017-01-25T16:38:19.768Z,0
2017-01-25T16:40:32.306Z,0
2017-01-25T16:42:44.846Z,0
2017-01-25T16:44:57.496Z,0
2017-01-25T16:47:04.948Z,0
2017-01-25T16:49:18.589Z,0
2017-01-25T16:51:30.896Z,0
2017-01-25T16:53:43.083Z,0
2017-01-25T16:55:50.354Z,0
2017-01-25T16:58:02.593Z,0
2017-01-25T17:00:15.060Z,0
2017-01-25T17:02:27.879Z,0
2017-01-25T17:04:40.247Z,0
2017-01-25T17:06:52.634Z,0
2017-01-25T17:09:05.169Z,0
2017-01-25T17:11:17.505Z,0
2017-01-25T17:13:24.962Z,0
2017-01-25T17:15:37.317Z,0
2017-01-25T17:17:49.702Z,0
2017-01-25T17:19:56.996Z,0
2017-01-25T17:22:09.600Z,0
2017-01-25T17:24:22.329Z,0
2017-01-25T17:26:34.684Z,0
2017-01-25T17:28:46.918Z,0
2017-01-25T17:30:59.407Z,0
2017-01-25T17:33:06.677Z,0
2017-01-25T17:35:19.039Z,0
2017-01-25T17:37:31.391Z,0
2017-01-25T17:39:43.708Z,0
2017-01-25T17:41:56.001Z,0
2017-01-25T17:44:08.321Z,0
2017-01-25T17:46:20.800Z,0
2017-01-25T17:48:33.201Z,0
2017-01-25T17:50:46.814Z,0
2017-01-25T17:52:59.471Z,0
2017-01-25T17:55:11.869Z,0
2017-01-25T17:57:24.166Z,0
2017-01-25T17:59:36.917Z,0
2017-01-25T18:01:50.008Z,0
2017-01-25T18:04:02.733Z,0
2017-01-25T18:06:10.303Z,0
2017-01-25T18:08:22.474Z,0
2017-01-25T18:10:48.506Z,0
2017-01-25T18:13:20.450Z,0
2017-01-25T18:15:35.985Z,0
2017-01-25T18:17:55.146Z,0
2017-01-25T18:20:07.975Z,0
2017-01-25T18:22:25.296Z,0
2017-01-25T18:24:40.291Z,0
2017-01-25T18:26:54.590Z,0
2017-01-25T18:29:09.344Z,0
2017-01-25T18:31:23.866Z,0
2017-01-25T18:33:38.821Z,0
2017-01-25T18:35:53.448Z,0
2017-01-25T18:38:10.926Z,0
2017-01-25T18:40:25.446Z,0
2017-01-25T18:42:42.277Z,0
2017-01-25T18:44:56.230Z,0
2017-01-25T18:47:43.448Z,0
2017-01-25T18:50:34.078Z,0
2017-01-25T18:53:21.850Z,0
2017-01-25T18:56:17.770Z,0
2017-01-25T18:59:10.696Z,0
2017-01-25T19:02:05.545Z,0
2017-01-25T19:04:57.569Z,0
2017-01-25T19:07:22.780Z,0
2017-01-25T19:09:38.836Z,0
2017-01-25T19:12:17.671Z,0
2017-01-25T19:14:48.237Z,0
2017-01-25T19:17:19.893Z,0
2017-01-25T19:19:56.249Z,0
2017-01-25T19:22:33.927Z,0
2017-01-25T19:25:12.362Z,0
2017-01-25T19:27:47.296Z,0
2017-01-25T19:30:19.895Z,0
2017-01-25T19:32:40.795Z,0
2017-01-25T19:35:06.647Z,0
2017-01-25T19:37:42.634Z,0
2017-01-25T19:40:15.389Z,0
2017-01-25T19:42:53.053Z,0
2017-01-25T19:45:36.875Z,0
2017-01-25T19:48:05.955Z,0
2017-01-25T19:50:39.291Z,0
2017-01-25T19:53:05.653Z,0
2017-01-25T19:55:31.445Z,0
2017-01-25T19:58:06.959Z,0
2017-01-25T20:00:38.487Z,0
2017-01-25T20:03:04.217Z,0
2017-01-25T20:05:36.347Z,0
2017-01-25T20:07:58.782Z,0
2017-01-25T20:10:25.790Z,0
2017-01-25T20:13:00.629Z,0
2017-01-25T20:15:31.337Z,0
2017-01-25T20:17:55.021Z,0
2017-01-25T20:20:20.622Z,0
2017-01-25T20:22:44.550Z,0
2017-01-25T20:25:17.439Z,0
2017-01-25T20:27:42.011Z,0
2017-01-25T20:30:13.768Z,0
2017-01-25T20:32:43.726Z,0
2017-01-25T20:35:09.648Z,0
2017-01-25T20:37:29.900Z,0
2017-01-25T20:39:43.793Z,0
2017-01-25T20:42:05.216Z,0
2017-01-25T20:44:42.399Z,0
2017-01-25T20:47:16.594Z,0
2017-01-25T20:49:52.640Z,0
2017-01-25T20:52:26.372Z,0
2017-01-25T20:55:01.833Z,0
2017-01-25T20:57:34.325Z,0
2017-01-25T21:00:10.830Z,0
2017-01-25T21:02:51.581Z,0
2017-01-25T21:05:33.668Z,0
2017-01-25T21:08:14.779Z,0
2017-01-25T21:10:46.192Z,0
2017-01-25T21:12:58.663Z,0
2017-01-25T21:15:11.245Z,0
2017-01-25T21:17:23.697Z,0
2017-01-25T21:19:40.186Z,0
2017-01-25T21:21:53.673Z,0
2017-01-25T21:24:06.074Z,0
2017-01-25T21:26:19.066Z,0
2017-01-25T21:28:32.181Z,0
2017-01-25T21:30:44.789Z,0
2017-01-25T21:32:53.827Z,0
2017-01-25T21:35:08.549Z,0
2017-01-25T21:37:21.785Z,0
2017-01-25T21:39:30.907Z,0
2017-01-25T21:41:46.082Z,0
2017-01-25T21:43:58.666Z,0
2017-01-25T21:46:11.110Z,0
2017-01-25T21:48:23.369Z,0
2017-01-25T21:50:35.772Z,0
2017-01-25T21:52:48.099Z,0
2017-01-25T21:55:00.568Z,0
2017-01-25T21:57:17.234Z,0
2017-01-25T21:59:29.536Z,0
2017-01-25T22:01:41.784Z,0
2017-01-25T22:03:54.199Z,0
2017-01-25T22:06:06.818Z,0
2017-01-25T22:08:19.370Z,0
2017-01-25T22:10:31.673Z,0
2017-01-25T22:12:44.090Z,0
2017-01-25T22:14:56.478Z,0
2017-01-25T22:17:09.046Z,0
2017-01-25T22:19:21.522Z,0
2017-01-25T22:21:33.976Z,0
2017-01-25T22:23:46.333Z,0
2017-01-25T22:25:58.689Z,0
2017-01-25T22:28:11.218Z,0
2017-01-25T22:30:23.532Z,0
2017-01-25T22:32:36.016Z,0
2017-01-25T22:34:48.394Z,0
2017-01-25T22:37:00.937Z,0
2017-01-25T22:39:15.661Z,0
2017-01-25T22:41:28.222Z,0
2017-01-25T22:43:47.480Z,0
2017-01-25T22:45:54.828Z,0
2017-01-25T22:48:07.305Z,0
2017-01-25T22:50:14.957Z,0
2017-01-25T22:52:28.148Z,0
2017-01-25T22:54:35.634Z,0
2017-01-25T22:56:48.146Z,0
2017-01-25T22:59:00.651Z,0
2017-01-25T23:01:13.223Z,0
2017-01-25T23:03:25.669Z,0
2017-01-25T23:05:38.140Z,0
2017-01-25T23:07:50.467Z,0
2017-01-25T23:10:02.979Z,0
2017-01-25T23:12:15.728Z,0
2017-01-25T23:14:28.583Z,0
2017-01-25T23:16:40.944Z,0
2017-01-25T23:18:53.332Z,0
2017-01-25T23:20:55.859Z,0
2017-01-25T23:23:08.216Z,0
2017-01-25T23:25:20.498Z,0
2017-01-25T23:27:32.726Z,0
2017-01-25T23:29:45.204Z,0
2017-01-25T23:31:52.596Z,0
2017-01-25T23:34:04.996Z,0
2017-01-25T23:36:17.313Z,0
2017-01-25T23:38:29.674Z,0
2017-01-25T23:40:42.627Z,0
2017-01-25T23:42:54.956Z,0
2017-01-25T23:45:07.272Z,0
2017-01-25T23:47:19.793Z,0
2017-01-25T23:49:27.710Z,0
2017-01-25T23:51:40.123Z,0
2017-01-25T23:53:52.592Z,0
2017-01-25T23:55:54.899Z,0
2017-01-25T23:58:07.152Z,0
